Observations for MANCHESTER INTL, United Kingdom (EGCC)

EGCC 112220Z AUTO 13006KT 100V170 9999 BKN039 07/03 Q1020 NOSIG 
EGCC 112150Z AUTO 13006KT 110V190 9999 OVC037 08/04 Q1020 NOSIG 
EGCC 112120Z AUTO VRB06KT 9999 OVC034 08/04 Q1021 NOSIG 
EGCC 112050Z AUTO 14006KT 070V220 9999 OVC033 07/04 Q1021 NOSIG 
EGCC 112020Z AUTO 13006KT 060V210 9999 OVC031 07/04 Q1021 NOSIG 
EGCC 111950Z AUTO 14006KT 020V180 9999 OVC031 08/04 Q1021 NOSIG 
EGCC 111920Z AUTO 12005KT 060V170 9999 OVC031 08/04 Q1021 NOSIG 
EGCC 111850Z AUTO 11004KT 360V180 9999 OVC031 07/04 Q1021 NOSIG 
EGCC 111820Z AUTO VRB03KT 9999 BKN033 07/04 Q1021 NOSIG 
EGCC 111750Z 11004KT 040V190 9999 SCT030 07/04 Q1021 NOSIG  
EGCC 111720Z VRB04KT 9999 BKN028 07/04 Q1021 NOSIG  
EGCC 111650Z 10004KT 020V170 9999 SCT028 07/04 Q1021 NOSIG  
EGCC 111620Z VRB03KT 9999 FEW030 07/04 Q1021 NOSIG  
EGCC 111550Z VRB03KT 9999 FEW030 07/04 Q1021 NOSIG  
EGCC 111520Z VRB03KT 9999 FEW030 08/04 Q1021 NOSIG  
EGCC 111450Z 14004KT 080V180 9999 FEW028 08/04 Q1021 NOSIG  
EGCC 111420Z 14004KT 060V220 9999 FEW030 08/05 Q1022 NOSIG  
EGCC 111350Z 15004KT 090V180 9999 FEW030 08/05 Q1022 NOSIG  
EGCC 111320Z 16004KT 100V210 9999 FEW025 08/05 Q1022 NOSIG  
EGCC 111250Z AUTO 16004KT 100V200 9999 BKN029 08/05 Q1022 NOSIG 
EGCC 111220Z AUTO VRB03KT 9999 OVC028 08/05 Q1023 NOSIG 
EGCC 111150Z AUTO 17004KT 130V210 9999 BKN028 BKN036 08/05 Q1023 NOSIG  
EGCC 111120Z AUTO 16005KT 120V220 9999 BKN034 08/05 Q1023 NOSIG 
EGCC 111050Z AUTO 15004KT 080V220 9999 BKN029 OVC037 08/05 Q1023 NOSIG  
EGCC 111020Z VRB03KT 9999 SCT026 BKN037 07/05 Q1024 NOSIG   
EGCC 110950Z 17004KT 080V230 9999 FEW018 BKN023 OVC040 08/05 Q1024 NOSIG
EGCC 110920Z 15004KT 100V210 9000 4000NW -RA SCT027 BKN031 BKN039 07/05 Q1024 NOSIG 
EGCC 110850Z AUTO VRB03KT 9999 SCT023 BKN030 BKN037 07/05 Q1024 NOSIG   
EGCC 110820Z AUTO 13004KT 090V180 9999 BKN019 OVC026 07/05 Q1024 NOSIG  
EGCC 110750Z AUTO VRB01KT 9999 BKN018 OVC024 07/05 Q1024 NOSIG  
EGCC 110720Z AUTO 13002KT 9999 SCT017 SCT022 BKN029 07/05 Q1024 NOSIG   
EGCC 110650Z AUTO VRB02KT 9999 OVC030 07/05 Q1024 NOSIG 
EGCC 110620Z AUTO VRB02KT 9999 OVC033 06/04 Q1024 NOSIG 
EGCC 110550Z AUTO 11002KT 9999 BKN032 OVC040 06/04 Q1024 NOSIG  
EGCC 110520Z AUTO VRB02KT 9999 OVC033 06/04 Q1024 NOSIG 
EGCC 110450Z AUTO VRB02KT 9999 OVC033 05/04 Q1024 NOSIG 
EGCC 110420Z AUTO 08002KT 9999 BKN032 03/02 Q1024 NOSIG 
EGCC 110350Z AUTO VRB02KT 9999 BKN034 04/03 Q1024 NOSIG 
EGCC 110320Z AUTO 10002KT 9999 BKN035 04/03 Q1025 NOSIG 
EGCC 110250Z AUTO 13003KT 9999 SCT036 04/02 Q1025 NOSIG 
EGCC 110220Z AUTO 13002KT 9999 FEW047 04/03 Q1025 NOSIG 
EGCC 110150Z AUTO 11002KT 9999 FEW048 05/04 Q1025 NOSIG 
EGCC 110120Z AUTO 10002KT 9999 SCT045 04/03 Q1025 NOSIG 
EGCC 110050Z AUTO VRB02KT 9999 BKN045 05/04 Q1025 NOSIG 
EGCC 110020Z AUTO VRB02KT 9999 BKN045 05/03 Q1026 NOSIG 
EGCC 102350Z AUTO VRB02KT 9999 BKN044 06/04 Q1026 NOSIG 
EGCC 102320Z AUTO VRB03KT 9999 OVC044 06/04 Q1026 NOSIG 
EGCC 102250Z AUTO VRB03KT 9999 OVC046 06/05 Q1026 NOSIG 
EGCC 102220Z AUTO VRB03KT 9999 OVC048 06/05 Q1027 NOSIG 
EGCC 102150Z AUTO 15002KT 6000 SCT049 06/05 Q1027 NOSIG